createdAt,value
2019-05-02T00:01:29.399Z,75.10
2019-05-02T00:03:58.829Z,74.74
2019-05-02T00:06:28.456Z,75.01
2019-05-02T00:08:57.949Z,74.80
2019-05-02T00:11:28.658Z,74.94
2019-05-02T00:13:58.519Z,74.87
2019-05-02T00:16:28.292Z,75.23
2019-05-02T00:18:57.580Z,74.87
2019-05-02T00:21:26.874Z,75.31
2019-05-02T00:23:59.283Z,74.86
2019-05-02T00:26:27.253Z,74.84
2019-05-02T00:28:56.873Z,74.69
2019-05-02T00:31:26.165Z,74.89
2019-05-02T00:33:55.515Z,74.31
2019-05-02T00:36:24.774Z,74.29
2019-05-02T00:38:54.041Z,74.16
2019-05-02T00:41:23.310Z,73.73
2019-05-02T00:43:52.664Z,74.08
2019-05-02T00:46:21.989Z,74.42
2019-05-02T00:48:59.942Z,74.55
2019-05-02T00:51:29.093Z,74.64
2019-05-02T00:53:58.505Z,74.06
2019-05-02T00:56:28.057Z,73.72
2019-05-02T00:58:57.527Z,73.67
2019-05-02T01:01:39.092Z,73.92
2019-05-02T01:04:18.448Z,74.20
2019-05-02T01:06:49.391Z,73.92
2019-05-02T01:09:19.104Z,74.38
2019-05-02T01:11:48.402Z,74.70
2019-05-02T01:14:17.762Z,74.91
2019-05-02T01:16:49.379Z,74.40
2019-05-02T01:19:18.676Z,74.80
2019-05-02T01:21:48.290Z,74.96
2019-05-02T01:24:17.716Z,75.52
2019-05-02T01:27:06.474Z,75.69
2019-05-02T01:29:47.543Z,75.92
2019-05-02T01:32:35.790Z,76.46
2019-05-02T01:35:27.045Z,76.91
2019-05-02T01:38:11.815Z,77.29
2019-05-02T01:40:41.719Z,76.83
2019-05-02T01:43:24.119Z,77.20
2019-05-02T01:45:54.389Z,76.58
2019-05-02T01:48:24.144Z,76.42
2019-05-02T01:50:53.678Z,77.36
2019-05-02T01:53:23.045Z,76.77
2019-05-02T01:55:57.253Z,76.64
2019-05-02T01:58:23.630Z,76.70
2019-05-02T02:00:52.915Z,76.43
2019-05-02T02:03:22.334Z,76.86
2019-05-02T02:05:51.680Z,76.57
2019-05-02T02:08:20.995Z,76.02
2019-05-02T02:10:56.232Z,76.21
2019-05-02T02:13:22.042Z,75.65
2019-05-02T02:15:51.426Z,75.21
2019-05-02T02:18:22.388Z,75.47
2019-05-02T02:21:12.216Z,74.69
2019-05-02T02:24:00.763Z,74.92
2019-05-02T02:26:30.109Z,75.08
2019-05-02T02:29:02.996Z,75.06
2019-05-02T02:31:30.341Z,74.65
2019-05-02T02:33:59.818Z,74.58
2019-05-02T02:36:33.844Z,74.80
2019-05-02T02:39:00.265Z,74.84
2019-05-02T02:41:29.534Z,74.45
2019-05-02T02:44:17.900Z,74.23
2019-05-02T02:46:47.396Z,74.50
2019-05-02T02:49:21.497Z,74.19
2019-05-02T02:51:48.305Z,74.13
2019-05-02T02:54:17.701Z,73.84
2019-05-02T02:56:46.975Z,73.54
2019-05-02T02:59:19.564Z,73.35
2019-05-02T03:01:47.398Z,73.85
2019-05-02T03:04:16.681Z,74.35
2019-05-02T03:06:47.209Z,73.66
2019-05-02T03:09:20.114Z,73.30
2019-05-02T03:12:04.940Z,73.57
2019-05-02T03:14:41.050Z,73.35
2019-05-02T03:17:07.101Z,73.01
2019-05-02T03:19:36.400Z,73.62
2019-05-02T03:22:05.675Z,73.07
2019-05-02T03:24:36.787Z,73.70
2019-05-02T03:27:05.954Z,73.30
2019-05-02T03:29:41.080Z,73.73
2019-05-02T03:32:25.567Z,73.66
2019-05-02T03:34:47.243Z,73.62
2019-05-02T03:37:13.189Z,73.46
2019-05-02T03:39:39.687Z,73.37
2019-05-02T03:42:10.364Z,73.85
2019-05-02T03:44:40.679Z,73.14
2019-05-02T03:47:09.954Z,73.24
2019-05-02T03:49:40.939Z,72.55
2019-05-02T03:52:11.658Z,72.68
2019-05-02T03:54:49.733Z,72.80
2019-05-02T03:57:12.358Z,72.49
2019-05-02T03:59:42.009Z,73.31
2019-05-02T04:02:14.161Z,72.63
2019-05-02T04:04:44.344Z,72.02
2019-05-02T04:07:14.213Z,71.91
2019-05-02T04:09:43.473Z,72.06
2019-05-02T04:12:18.889Z,72.15
2019-05-02T04:14:44.522Z,71.95
2019-05-02T04:17:13.841Z,72.05
2019-05-02T04:19:43.934Z,71.99
2019-05-02T04:22:14.912Z,71.67
2019-05-02T04:24:47.953Z,71.31
2019-05-02T04:27:15.257Z,70.87
2019-05-02T04:29:44.843Z,71.21
2019-05-02T04:32:14.763Z,69.91
2019-05-02T04:34:49.063Z,70.82
2019-05-02T04:37:15.434Z,70.46
2019-05-02T04:39:44.769Z,71.32
2019-05-02T04:42:19.631Z,70.61
2019-05-02T04:45:09.423Z,70.84
2019-05-02T04:47:18.594Z,71.01
2019-05-02T04:49:49.086Z,71.86
2019-05-02T04:52:21.147Z,71.29
2019-05-02T04:54:49.780Z,71.65
2019-05-02T04:57:19.094Z,71.40
2019-05-02T04:59:50.588Z,70.81
2019-05-02T05:02:23.039Z,71.30
2019-05-02T05:04:50.653Z,70.96
2019-05-02T05:07:20.142Z,70.28
2019-05-02T05:09:57.068Z,71.19
2019-05-02T05:12:20.459Z,71.02
2019-05-02T05:14:49.837Z,70.99
2019-05-02T05:17:20.027Z,70.88
2019-05-02T05:19:49.461Z,70.37
2019-05-02T05:22:18.818Z,69.84
2019-05-02T05:25:00.726Z,70.49
2019-05-02T05:27:30.122Z,70.54
2019-05-02T05:30:07.660Z,70.93
2019-05-02T05:32:30.503Z,71.28
2019-05-02T05:35:03.291Z,71.94
2019-05-02T05:37:31.127Z,71.65
2019-05-02T05:40:00.364Z,70.96
2019-05-02T05:42:33.230Z,70.80
2019-05-02T05:45:03.871Z,71.39
2019-05-02T05:47:31.729Z,70.59
2019-05-02T05:50:01.397Z,70.36
2019-05-02T05:52:33.213Z,69.92
2019-05-02T05:55:04.753Z,69.47
2019-05-02T05:57:33.145Z,68.98
2019-05-02T06:00:03.936Z,69.34
2019-05-02T06:02:50.871Z,69.07
2019-05-02T06:05:05.539Z,68.99
2019-05-02T06:07:41.899Z,68.94
2019-05-02T06:10:07.999Z,68.78
2019-05-02T06:12:37.577Z,68.19
2019-05-02T06:15:07.290Z,68.70
2019-05-02T06:17:36.574Z,67.99
2019-05-02T06:20:06.275Z,66.72
2019-05-02T06:22:35.798Z,66.83
2019-05-02T06:25:10.321Z,65.58
2019-05-02T06:27:39.709Z,65.87
2019-05-02T06:30:09.626Z,66.11
2019-05-02T06:32:39.072Z,66.91
2019-05-02T06:35:08.634Z,67.98
2019-05-02T06:37:40.454Z,68.19
2019-05-02T06:40:09.442Z,68.98
2019-05-02T06:42:39.022Z,69.64
2019-05-02T06:45:08.823Z,69.06
2019-05-02T06:47:41.841Z,68.17
2019-05-02T06:50:10.655Z,67.15
2019-05-02T06:52:39.973Z,65.81
2019-05-02T06:55:09.349Z,65.10
2019-05-02T06:57:38.641Z,65.62
2019-05-02T07:00:08.911Z,64.94
2019-05-02T07:02:38.253Z,63.90
2019-05-02T07:05:07.868Z,63.89
2019-05-02T07:07:37.732Z,63.40
2019-05-02T07:10:07.698Z,63.59
2019-05-02T07:12:36.925Z,62.31
2019-05-02T07:15:10.959Z,61.74
2019-05-02T07:17:45.040Z,62.84
2019-05-02T07:20:15.001Z,62.63
2019-05-02T07:22:45.688Z,63.12
2019-05-02T07:25:17.063Z,63.68
2019-05-02T07:27:46.412Z,63.02
2019-05-02T07:30:17.107Z,63.41
2019-05-02T07:32:46.502Z,64.48
2019-05-02T07:35:19.225Z,64.19
2019-05-02T07:37:48.735Z,61.78
2019-05-02T07:40:18.864Z,61.39
2019-05-02T07:42:48.236Z,61.60
2019-05-02T07:45:17.562Z,61.71
2019-05-02T07:47:46.918Z,61.58
2019-05-02T07:50:16.508Z,61.37
2019-05-02T07:52:45.828Z,61.37
2019-05-02T07:55:15.289Z,60.15
2019-05-02T07:57:44.680Z,60.27
2019-05-02T08:00:16.110Z,60.85
2019-05-02T08:02:45.490Z,59.17
2019-05-02T08:05:21.008Z,58.71
2019-05-02T08:07:46.259Z,58.87
2019-05-02T08:10:22.145Z,58.29
2019-05-02T08:12:48.954Z,58.69
2019-05-02T08:15:18.554Z,58.27
2019-05-02T08:17:53.264Z,57.95
2019-05-02T08:20:19.813Z,58.71
2019-05-02T08:22:50.482Z,60.46
2019-05-02T08:25:20.060Z,59.38
2019-05-02T08:28:04.896Z,59.97
2019-05-02T08:30:40.396Z,58.13
2019-05-02T08:33:09.738Z,60.57
2019-05-02T08:35:39.238Z,60.20
2019-05-02T08:38:12.552Z,60.40
2019-05-02T08:40:42.262Z,61.42
2019-05-02T08:43:10.950Z,60.97
2019-05-02T08:45:40.341Z,61.08
2019-05-02T08:48:09.581Z,59.51
2019-05-02T08:50:39.189Z,59.35
2019-05-02T08:53:08.572Z,59.10
2019-05-02T08:55:41.307Z,58.87
2019-05-02T08:58:14.389Z,56.24
2019-05-02T09:00:40.273Z,57.39
2019-05-02T09:03:09.592Z,57.84
2019-05-02T09:05:45.342Z,57.81
2019-05-02T09:08:14.265Z,57.41
2019-05-02T09:10:42.232Z,57.54
2019-05-02T09:13:15.830Z,58.96
2019-05-02T09:15:49.781Z,57.99
2019-05-02T09:18:14.392Z,58.40
2019-05-02T09:20:47.095Z,58.49
2019-05-02T09:23:14.975Z,58.91
2019-05-02T09:25:44.288Z,58.80
2019-05-02T09:28:17.081Z,58.76
2019-05-02T09:30:46.826Z,59.49
2019-05-02T09:33:16.153Z,59.92
2019-05-02T09:35:45.404Z,60.21
2019-05-02T09:38:16.393Z,59.54
2019-05-02T09:40:47.177Z,61.34
2019-05-02T09:43:16.786Z,60.64
2019-05-02T09:45:47.143Z,59.38
2019-05-02T09:48:17.296Z,59.01
2019-05-02T09:50:47.641Z,58.31
2019-05-02T09:53:20.770Z,58.64
2019-05-02T09:55:55.120Z,59.20
2019-05-02T09:58:21.907Z,53.21
2019-05-02T10:01:01.856Z,56.00
2019-05-02T10:03:31.904Z,55.12
2019-05-02T10:06:03.186Z,54.70
2019-05-02T10:08:32.653Z,54.72
2019-05-02T10:11:02.962Z,55.46
2019-05-02T10:13:33.626Z,52.92
2019-05-02T10:16:03.150Z,54.19
2019-05-02T10:18:33.053Z,55.17
2019-05-02T10:21:03.147Z,55.21
2019-05-02T10:23:32.967Z,55.84
2019-05-02T10:26:02.872Z,55.22
2019-05-02T10:28:32.182Z,55.50
2019-05-02T10:31:02.274Z,53.97
2019-05-02T10:33:33.714Z,51.90
2019-05-02T10:36:02.993Z,52.41
2019-05-02T10:38:32.694Z,53.75
2019-05-02T10:41:04.585Z,50.79
2019-05-02T10:43:33.146Z,50.38
2019-05-02T10:46:37.936Z,50.33
2019-05-02T10:49:16.662Z,51.39
2019-05-02T10:51:49.163Z,52.70
2019-05-02T10:54:17.128Z,50.76
2019-05-02T10:56:46.422Z,47.74
2019-05-02T10:59:15.766Z,50.16
2019-05-02T11:02:10.162Z,48.96
2019-05-02T11:04:43.996Z,54.18
2019-05-02T11:07:16.958Z,56.67
2019-05-02T11:09:44.508Z,57.18
2019-05-02T11:12:24.318Z,55.75
2019-05-02T11:14:56.457Z,53.33
2019-05-02T11:17:32.355Z,51.32
2019-05-02T11:20:06.501Z,50.58
2019-05-02T11:22:35.838Z,50.38
2019-05-02T11:25:05.782Z,49.47
2019-05-02T11:27:35.067Z,51.98
2019-05-02T11:30:05.242Z,54.80
2019-05-02T11:32:34.535Z,60.07
2019-05-02T11:35:03.890Z,64.00
2019-05-02T11:37:33.400Z,68.50
2019-05-02T11:40:06.156Z,71.05
2019-05-02T11:42:34.123Z,71.14
2019-05-02T11:45:03.431Z,71.42
2019-05-02T11:47:32.975Z,70.82
2019-05-02T11:50:02.627Z,69.97
2019-05-02T11:52:36.070Z,69.17
2019-05-02T11:55:03.113Z,68.76
2019-05-02T11:57:33.215Z,67.07
2019-05-02T12:00:05.031Z,64.97
2019-05-02T12:02:58.026Z,65.22
2019-05-02T12:05:35.726Z,62.45
2019-05-02T12:08:07.819Z,60.53
2019-05-02T12:10:36.658Z,61.59
2019-05-02T12:13:06.618Z,60.99
2019-05-02T12:15:36.804Z,61.68
2019-05-02T12:18:06.144Z,62.13
2019-05-02T12:20:36.868Z,61.93
2019-05-02T12:23:09.001Z,60.76
2019-05-02T12:25:37.337Z,61.10
2019-05-02T12:28:06.896Z,60.61
2019-05-02T12:30:37.816Z,59.02
2019-05-02T12:33:07.451Z,58.66
2019-05-02T12:35:36.789Z,57.53
2019-05-02T12:38:06.079Z,56.65
2019-05-02T12:40:35.504Z,56.51
2019-05-02T12:43:04.945Z,55.51
2019-05-02T12:45:34.205Z,55.66
2019-05-02T12:48:03.648Z,54.84
2019-05-02T12:50:33.078Z,54.09
2019-05-02T12:53:03.059Z,54.10
2019-05-02T12:55:32.661Z,53.24
2019-05-02T12:58:03.107Z,52.69
2019-05-02T13:00:32.557Z,52.68
2019-05-02T13:03:33.384Z,50.25
2019-05-02T13:06:03.175Z,49.34
2019-05-02T13:08:34.213Z,47.63
2019-05-02T13:11:18.141Z,48.39
2019-05-02T13:13:47.600Z,50.85
2019-05-02T13:16:16.894Z,50.33
2019-05-02T13:18:46.230Z,50.70
2019-05-02T13:21:20.806Z,51.19
2019-05-02T13:24:17.666Z,50.85
2019-05-02T13:26:53.856Z,49.70
2019-05-02T13:29:18.124Z,50.87
2019-05-02T13:32:16.983Z,49.16
2019-05-02T13:34:48.701Z,49.62
2019-05-02T13:37:18.678Z,49.29
2019-05-02T13:40:11.994Z,48.13
2019-05-02T13:42:41.897Z,49.26
2019-05-02T13:45:19.049Z,47.77
2019-05-02T13:47:48.559Z,49.22
2019-05-02T13:50:18.261Z,49.97
2019-05-02T13:52:53.133Z,50.64
2019-05-02T13:55:23.655Z,47.83
2019-05-02T13:57:53.145Z,45.76
2019-05-02T14:00:29.457Z,45.31
2019-05-02T14:02:58.713Z,45.41
2019-05-02T14:05:28.015Z,44.81
2019-05-02T14:08:14.517Z,43.38
2019-05-02T14:10:45.127Z,44.35
2019-05-02T14:13:14.378Z,44.31
2019-05-02T14:15:43.791Z,45.57
2019-05-02T14:18:13.099Z,44.90
2019-05-02T14:20:42.884Z,46.16
2019-05-02T14:23:12.282Z,44.11
2019-05-02T14:25:42.584Z,45.70
2019-05-02T14:28:12.966Z,44.63
2019-05-02T14:30:46.115Z,43.19
2019-05-02T14:33:18.019Z,43.33
2019-05-02T14:35:47.538Z,43.00
2019-05-02T14:38:19.597Z,45.68
2019-05-02T14:41:21.738Z,45.19
2019-05-02T14:43:57.137Z,45.13
2019-05-02T14:46:35.354Z,45.90
2019-05-02T14:48:58.267Z,47.19
2019-05-02T14:51:28.139Z,45.07
2019-05-02T14:54:03.598Z,45.71
2019-05-02T14:56:45.942Z,47.11
2019-05-02T14:59:15.313Z,45.97
2019-05-02T15:01:47.558Z,45.21
2019-05-02T15:04:17.013Z,45.12
2019-05-02T15:06:47.592Z,44.44
2019-05-02T15:09:22.518Z,41.96
2019-05-02T15:12:02.892Z,41.01
2019-05-02T15:14:33.346Z,41.97
2019-05-02T15:17:02.992Z,44.49
2019-05-02T15:19:33.198Z,43.33
2019-05-02T15:22:02.691Z,42.87
2019-05-02T15:24:37.454Z,42.05
2019-05-02T15:27:11.350Z,42.35
2019-05-02T15:29:34.882Z,42.26
2019-05-02T15:32:25.965Z,42.15
2019-05-02T15:35:24.932Z,42.62
2019-05-02T15:37:51.871Z,44.19
2019-05-02T15:42:52.457Z,43.82
2019-05-02T15:45:23.989Z,43.34
2019-05-02T15:47:53.385Z,42.24
2019-05-02T15:50:25.489Z,41.68
2019-05-02T15:53:10.071Z,42.35
2019-05-02T15:55:42.122Z,42.20
2019-05-02T15:58:16.945Z,45.08
2019-05-02T16:00:56.467Z,44.75
2019-05-02T16:03:45.763Z,43.73
2019-05-02T16:06:16.468Z,45.06
2019-05-02T16:08:47.118Z,44.84
2019-05-02T16:11:17.604Z,45.44
2019-05-02T16:13:52.760Z,46.53
2019-05-02T16:16:21.754Z,46.78
2019-05-02T16:18:52.581Z,45.33
2019-05-02T16:21:42.519Z,44.91
2019-05-02T16:24:22.913Z,45.81
2019-05-02T16:26:56.433Z,46.68
2019-05-02T16:29:28.435Z,45.67
2019-05-02T16:32:30.920Z,45.57
2019-05-02T16:35:02.792Z,45.81
2019-05-02T16:37:32.525Z,46.20
2019-05-02T16:40:02.605Z,44.66
2019-05-02T16:42:32.827Z,46.23
2019-05-02T16:45:02.734Z,45.41
2019-05-02T16:47:32.718Z,46.00
2019-05-02T16:50:02.533Z,44.68
2019-05-02T16:52:32.673Z,45.85
2019-05-02T16:55:02.972Z,46.85
2019-05-02T16:57:32.725Z,46.50
2019-05-02T17:00:06.205Z,46.33
2019-05-02T17:02:37.937Z,47.00
2019-05-02T17:05:09.337Z,47.71
2019-05-02T17:08:03.326Z,49.08
2019-05-02T17:10:38.609Z,49.16
2019-05-02T17:13:07.934Z,49.37
2019-05-02T17:15:37.708Z,48.35
2019-05-02T17:18:18.055Z,49.17
2019-05-02T17:20:39.015Z,50.22
2019-05-02T17:23:08.336Z,50.93
2019-05-02T17:25:37.887Z,50.05
2019-05-02T17:28:10.513Z,50.34
2019-05-02T17:30:40.450Z,50.88
2019-05-02T17:33:14.267Z,50.78
2019-05-02T17:35:48.386Z,50.69
2019-05-02T17:38:12.248Z,50.83
2019-05-02T17:40:42.151Z,50.90
2019-05-02T17:43:11.681Z,51.84
2019-05-02T17:45:41.013Z,51.10
2019-05-02T17:48:16.430Z,51.23
2019-05-02T17:51:02.218Z,50.71
2019-05-02T17:53:33.631Z,50.99
2019-05-02T17:56:02.591Z,51.33
2019-05-02T17:58:31.957Z,52.22
2019-05-02T18:01:03.121Z,53.06
2019-05-02T18:03:35.193Z,53.21
2019-05-02T18:06:07.713Z,53.97
2019-05-02T18:08:34.850Z,53.63
2019-05-02T18:11:04.200Z,54.47
2019-05-02T18:13:35.303Z,54.61
2019-05-02T18:16:07.756Z,54.85
2019-05-02T18:18:37.576Z,55.47
2019-05-02T18:21:06.898Z,54.22
2019-05-02T18:23:36.222Z,54.72
2019-05-02T18:26:06.451Z,52.98
2019-05-02T18:28:46.247Z,53.60
2019-05-02T18:31:06.989Z,50.44
2019-05-02T18:33:41.026Z,50.79
2019-05-02T18:36:07.542Z,53.26
2019-05-02T18:38:36.818Z,54.12
2019-05-02T18:41:07.791Z,54.74
2019-05-02T18:43:43.460Z,56.82
2019-05-02T18:46:08.285Z,57.79
2019-05-02T18:48:44.201Z,58.31
2019-05-02T18:51:08.983Z,57.96
2019-05-02T18:53:38.242Z,57.75
2019-05-02T18:56:07.624Z,57.75
2019-05-02T18:58:41.342Z,57.48
2019-05-02T19:01:13.306Z,57.55
2019-05-02T19:03:39.878Z,57.87
2019-05-02T19:06:09.198Z,57.75
2019-05-02T19:08:46.619Z,57.86
2019-05-02T19:11:12.666Z,59.17
2019-05-02T19:13:44.195Z,59.91
2019-05-02T19:16:13.229Z,60.17
2019-05-02T19:18:42.694Z,60.96
2019-05-02T19:21:12.690Z,61.33
2019-05-02T19:23:42.614Z,61.22
2019-05-02T19:26:14.957Z,61.94
2019-05-02T19:29:17.087Z,62.51
2019-05-02T19:31:47.153Z,63.98
2019-05-02T19:34:21.797Z,63.75
2019-05-02T19:36:47.760Z,64.65
2019-05-02T19:39:17.336Z,64.74
2019-05-02T19:41:46.648Z,64.67
2019-05-02T19:44:21.479Z,65.22
2019-05-02T19:46:47.333Z,65.12
2019-05-02T19:49:16.655Z,64.92
2019-05-02T19:51:50.355Z,66.12
2019-05-02T19:54:17.430Z,64.71
2019-05-02T19:56:47.603Z,65.32
2019-05-02T19:59:24.631Z,65.41
2019-05-02T20:01:48.333Z,66.25
2019-05-02T20:04:17.696Z,66.73
2019-05-02T20:06:47.063Z,66.42
2019-05-02T20:09:16.697Z,69.51
2019-05-02T20:11:46.076Z,69.85
2019-05-02T20:14:15.525Z,68.21
2019-05-02T20:16:50.245Z,70.01
2019-05-02T20:19:23.047Z,69.66
2019-05-02T20:22:11.826Z,72.91
2019-05-02T20:24:59.875Z,75.64
2019-05-02T20:27:28.432Z,77.41
2019-05-02T20:29:57.497Z,79.20
2019-05-02T20:32:27.141Z,79.30
2019-05-02T20:34:56.427Z,80.04
2019-05-02T20:37:25.863Z,80.28
2019-05-02T20:39:55.395Z,80.56
2019-05-02T20:42:24.717Z,80.18
2019-05-02T20:44:53.987Z,79.98
2019-05-02T20:47:26.021Z,79.52
2019-05-02T20:49:55.452Z,80.17
2019-05-02T20:52:24.740Z,82.22
2019-05-02T20:54:54.213Z,83.67
2019-05-02T20:57:23.593Z,83.85
2019-05-02T20:59:52.839Z,84.78
2019-05-02T21:02:22.371Z,85.91
2019-05-02T21:04:52.273Z,85.09
2019-05-02T21:07:34.626Z,86.00
2019-05-02T21:10:08.463Z,85.51
2019-05-02T21:12:37.843Z,85.70
2019-05-02T21:15:07.334Z,85.86
2019-05-02T21:17:36.636Z,85.94
2019-05-02T21:20:06.849Z,86.18
2019-05-02T21:22:36.689Z,86.70
2019-05-02T21:25:06.635Z,87.25
2019-05-02T21:27:36.038Z,87.63
2019-05-02T21:30:06.603Z,88.14
2019-05-02T21:32:35.903Z,88.36
2019-05-02T21:35:06.041Z,88.73
2019-05-02T21:37:35.304Z,89.05
2019-05-02T21:40:05.087Z,89.13
2019-05-02T21:42:34.594Z,89.57
2019-05-02T21:45:05.076Z,89.79
2019-05-02T21:47:34.414Z,89.62
2019-05-02T21:50:26.346Z,89.77
2019-05-02T21:53:22.190Z,90.11
2019-05-02T21:56:12.304Z,90.42
2019-05-02T21:59:02.819Z,90.87
2019-05-02T22:01:32.887Z,91.50
2019-05-02T22:04:02.432Z,91.57
2019-05-02T22:06:33.037Z,91.87
2019-05-02T22:09:03.155Z,92.14
2019-05-02T22:11:32.578Z,91.86
2019-05-02T22:14:02.484Z,91.84
2019-05-02T22:16:32.685Z,91.84
2019-05-02T22:19:02.913Z,91.36
2019-05-02T22:21:35.093Z,91.17
2019-05-02T22:24:11.210Z,91.05
2019-05-02T22:26:35.011Z,91.37
2019-05-02T22:29:04.313Z,91.55
2019-05-02T22:31:33.618Z,91.71
2019-05-02T22:34:03.111Z,91.92
2019-05-02T22:36:32.869Z,92.15
2019-05-02T22:39:17.986Z,92.39
2019-05-02T22:41:47.282Z,92.65
2019-05-02T22:44:16.589Z,92.81
2019-05-02T22:46:46.869Z,92.89
2019-05-02T22:49:16.565Z,92.85
2019-05-02T22:51:45.878Z,92.93
2019-05-02T22:54:26.968Z,92.98
2019-05-02T22:56:46.414Z,93.08
2019-05-02T22:59:15.676Z,93.03
2019-05-02T23:01:45.194Z,93.06
2019-05-02T23:04:14.504Z,92.97
2019-05-02T23:06:44.261Z,92.89
2019-05-02T23:09:13.969Z,92.85
2019-05-02T23:11:43.292Z,92.80
2019-05-02T23:14:12.577Z,92.75
2019-05-02T23:16:42.911Z,92.19
2019-05-02T23:19:12.573Z,92.34
2019-05-02T23:21:42.361Z,92.47
2019-05-02T23:24:18.169Z,92.14
2019-05-02T23:27:00.077Z,91.77
2019-05-02T23:29:29.620Z,91.09
2019-05-02T23:31:58.920Z,89.94
2019-05-02T23:34:28.341Z,89.90
2019-05-02T23:36:57.861Z,89.99
2019-05-02T23:39:27.139Z,89.83
2019-05-02T23:41:56.399Z,89.22
2019-05-02T23:44:26.105Z,89.29
2019-05-02T23:46:55.398Z,89.57
2019-05-02T23:49:24.705Z,89.22
2019-05-02T23:51:54.203Z,89.60
2019-05-02T23:54:23.508Z,89.84
2019-05-02T23:56:52.762Z,89.34
2019-05-02T23:59:22.462Z,89.35
